Khasan, Russia
Current Conditions -  °F | °C
As of 10:00 AM on Saturday 29 Nov 2014 (Local Time) from UHWW Reporting Station
Overcast Overcast  
Wind Chill: 21°   Ceiling: 3300
Heat Index: 28°   Visibility: 6mi
Dew Point: 21°   Wind: 7mph
Humidity: 74%   Direction: 310°NW
Pressure: 30.21"   Gusts: NA
Location:  42.42°N, 130.65°E
Report Text: UHWW 290000Z 31003MPS 9999 OVC033 M02/M06 Q1023 NOSIG RMKQFE766/1021 25490345
Loading
Personal Weather Stations






























Interactive Weather Map New forecast layout! Learn more

10-Day Weather Forecast

Advertisements
Track Severe Weather on mobile